Race Results for
NY Capital Region Road Race
Albany (Revena), NY
(Event Information)
View By:
Road Race on 08/20/2011

Note: Ranking points are NOT upgrade points. An explanation of ranking points can be found here.


Men - Cat 5

 Place Points NameCity, StateTime USAC #BibTeam
1ANDREW SINGER   2:02:54  532 ELEVATE CYCLES
2442.16Andrew Nadeau   Rochester, NY2:04:52 342498  525 UNIVERSITY OF ROCHESTER
3445.82Shane OBrien   Saratoga Springs, NY2:06:22 344170  527 TEAM ELEVATE CYCLES
4449.48DYLAN THOMARIE   Northville, NY2:11:15 368523  536 ADIRONDACK VELO CLUB
5453.14Greg Hilt   Apex, NC2:11:16 337762  513 CAPITAL CYCLING CLUB / PEAK AUTO
6THOMAS GORDON   2:11:24  510 
7460.46ROBERT IULIANO   Troy, NY2:11:37 229503  516 ANGRY FISH
8464.12Roger Truax   Troy, NY2:11:43 67815  537 CAPITAL BICYCLE RACING CLUB
9467.78Michael McConnell   Walden, NY2:11:50 283262  523 DARK HORSE CYCLES RACING
10471.44Jerry Hicks   Queensbury, NY2:11:57 365250  512 TEAM RPM
11475.10Peter Nordberg   Brooklyn, NY2:12:51 357103  526 
12STUART LEVY   2:13:35  521 TENAFLY ROAD DAWGZ
13482.42Alton Ostrander   Albany, NY2:13:41 26898  538 CAPITAL BICYCLE RACING CLUB
14486.08ED DECKER   Ravena2:18:41 377286  506 CBRC
15489.74Michael DeSantis   Harrington Park, NJ2:18:44 354288  507 TENAFLY ROAD DAWGZ
16DAN CAPLINGER   2:19:33  505 
17CHRISTOPHER LAMOTHE   2:21:32  520 
18500.72BRIAN MCKENNA   Manasquan, NJ2:24:10 95232  524 
19504.38Craig Rotile   Demarest, NJ2:25:43 302367  530 TENAFLY ROAD DAWGZ
20508.04Kevin Kretzschmar   Rensselaer, NY2:28:00 332398  519 TOMHANNOCK BICYCLE
21EDWARD ARMSTRONG   2:29:41  502 
22STEVEN HUNTINGTON   2:29:45  515 RACING ABM
23STEVE STRING   2:30:06  534 ADERONDACK VELO CLUB
24522.68Robert Galehouse   Belmont, MA2:30:51 347174  509 CICLI IL MASSIMO
25PETER JINDRA   2:33:07  517 
26DANIEL DICK   2:36:05  508 
27ANDREW RIZZI   2:36:23  529 HRRT
28BUCK MAILLE   2:37:04  522 HRRT
29540.98JEFF HANNA   Edmond, OK2:44:02 335276  511 HRRT
30544.64MATTHEW TEBO   Kensington, MD2:47:29 315008  535 
31548.30Tim Kohanski   Chittenango, NY2:49:15 344104  518 

Men - Cat 4/5

 Place Points NameCity, StateTime USAC #BibTeam
1189.89Gregory Dorsch   South Salem, NY2:01:12 310417  413 TARMAC CYCLING/IRON BRIDGE CONSULTING
2195.58LIAM WHOLLY   Bangor, ME2:01:13 318422  472 UNIVERSITY OF ROCHESTER
3201.27Dylan Nord   New York, NY2:01:13 342684  443 SPEEDWELL RACING
4206.96Timothy Stenovec   Brooklyn, NY2:01:13 309493  459 CRCA/EASTERN MOUNTAIN SPORTS
5212.65Matthew Warbrick   Tuxedo Park, NY2:01:14 244750  467 RENSSELAER CYCLING TEAM
6218.34Timothy Durrin   Greatbarrington, MA2:01:14 285883  416 BERKSHIRE CYCLING ASSOCIATION
7224.03John Ford   West Harrison, NY2:01:14 356990  420 
8229.72Tim Ward   Hastings On Hudson, NY2:01:14 355802  468 TEAM HASTINGS VELO
9235.41LEE WOOD   Bozeman, MT2:01:15 358717  473 GMBC
10241.10Phillip Truppelli   Ringoes, NJ2:01:15 293199  478 COLAVITA-BACI U19
11246.79Eli Branch   Jersey City, NJ2:01:15 356488  406 TENNESSEE VALLEY BIKES
12252.48Tod Gentry   Boston, MA2:01:16 309465  423 CORNELL CYCLING CLUB
13258.17Emory Creel   Hamilton, NY2:01:16 175763  410 CENTRAL NEW YORK CYCLIST
14MIKE WYNN   2:01:17  479 PERU NORDIC
15269.55Keane McCullum   Grantham, PA2:01:17 297979  440 MESSIAH COLLEGE CYCLING
16275.24PHILL VERMETTE   Dallas, TX2:01:18 71497  466 EUROSPORTS
17280.93Matt Mallet   Corvallis, OR2:01:18 227664  439 CATSKILL MOUNTAIN MULTISPORT
18286.62Dan Aviles   Mineola, NY2:01:19 322416  402 MINEOLA BICYCLE
19292.31Brandon Freyer   Brewster, NY2:01:20 281876  421 PAWLING CYCLE & SPORT
20298.00Ben Driver   Burlington, VT2:01:20 323414  415 
21303.69Lorenzo Grippo   Katonah, NY2:01:27 303039  428 TEAM DANBURY AUDI / PEDAL & PUMP
22309.38Justin Gero   Annandale On Hudson, NY2:01:28 340750  424 BARD COLLEGE
23315.07Eric Newbury (1 - Cat5)   Fairfield, VT2:01:28 281678  442 THE GREEN MOUNTAIN BIKE CLUB
24320.76Christopher DeLuco   Yonkers, NY2:01:34 292319  411 TARMAC CYCLING/IRON BRIDGE CONSULTING
25326.45GChris Gleason (2 - Cat5)   Clifton Park, NY2:01:40 358538  425 CATSKILL MOUNTAIN MULTISPORT
26332.14Scott Hock   Johnstown2:01:40 233819  432 ADIRONDACK VELO CLUB
27337.83Blaine Hurty   Darien, CT2:01:54 309274  433 TARMAC CYCLING/IRON BRIDGE CONSULTING
28343.52Gary Eveland   Philadelphia, PA2:02:33 287250  419 BREAKAWAYBIKES.COM-IFRACTAL
29349.21Joseph Wells   St. Albans, VT2:03:40 173638  469 EARLS CYCLERY AND FITNESS
30354.90Yohsuke Takakura   Albany, NY2:03:56 306296  462 CAPITAL BICYCLE RACING CLUB
31360.59Patrick Grehan   Rockville Centre, NY2:04:03 277702  427 KISSENA CYCLING CLUB
32366.28myles partellow   Mount Kisco, NY2:04:07 298313  446 TARMAC CYCLING / IRON BRIDGE
33371.97Carlos Quintero   Wappingers Falls, NY2:05:11 180582  449 CAFETEROS CYCLING CLUB
34377.66Jonathan Sussman   Cambridge, MA2:07:42 296768  461 BICYCLE HAUS RACING
35383.35Carl Pfranger   Utica, NY2:07:45 304938  482 DICK SONNE'S RACING/ MOHAWK VALLEY BIKE CLUB
36389.04Russell Bogin   New York, NY2:07:51 319680  405 CRCA
37394.73Michael Sullivan (3 - Cat5)   Appleton, WI2:07:52 354902  460 O2 Cycling
38400.42Vlad Preoteasa   Brooklyn, NY2:07:55 350162  448 SPEEDWELL RACING
39406.11Robert Gomez (4 - Cat5)   Yorktown Heights, NY2:07:56 292460  426 TARMAC RACING/IRON BRIDGE CONSULT.
40411.80Max Dougherty   Boise, ID2:07:56 311090  414 ONION RIVER RACING
41417.49Edward Smith   Plattsburgh, NY2:07:56 99200  481 TEAM PLACID PLANET
42423.18Andrew LaPlante   Peru, NY2:08:05 114465  435 TEAM PLACID PLANET
43428.87Judson Speer   Cobleskill, NY2:08:08 207033  458 WINDHAM MOUNTAIN OUTFITTERS
44Aaron Degiovine   2:08:12  480 
45440.25Todd Shapiro   Ballston Spa, NY2:09:12 288698  456 NORTH AMERICAN VELO
46445.94Kevin Emr   Syracuse, NY2:09:37 291204  418 CORNING/NOTUBES RACE TEAM
47451.63Tim Cleworth   Schenectady, NY2:09:43 118560  409 CAPITAL BICYCLE RACING CLUB
48457.32Stephen Werthner   Albany, NY2:09:46 237565  470 CAPITAL BICYCLE RACING CLUB
49463.01Chris VanDeusen   Jacksonville, FL2:09:52 351176  465 VELOBREW RACING
50JOHN LIBUTTI JR.   2:09:53  438 
51474.39Michael Lenihan   Lake George, NY2:09:56 213656  437 BATTENKILL-UNITED
52480.08Timothy Fulco   Sheffield, MA2:10:00 230307  422 BCA/TOSK
53485.77Timothy Lener   Goldens Bridge, NY2:11:35 326294  436 TARMAC CYCLING/IRON BRIDGE CONSULTING
54491.46Adam Eisenberg   Brooklyn, NY2:11:45 304608  417 CRCA/SIGGI'S/NYVELOCITY
55497.15Matthew Christian   Troy, NY2:11:49 205927  408 TOMHANNOCK BICYCLES/CAPITAL BICYCLE RACING CLUB
56502.84Micha Ophir   New York, NY2:11:53 318338  445 CRCA/ENDURANCEWERX
57Ken Febus   2:12:18  539 
58514.22Seth deMarrais   Worcester, NY2:12:22 307456  412 CAPITAL BICYCLE RACING CLUB
59519.91Daniel OHare   Westerlo, NY2:13:43 322524  444 
60525.60BRIAN AMERSI   San Francisco, CA2:16:34 150297  401 
61531.29Dean Robert   Weston, CT2:16:49 358023  453 TARGETRAINING WESTPORT
62536.98ALDO CALAMARI   Long Island City, NY2:17:07 365276  407 
63542.67Daniel Rivers   Lowville, NY2:17:15 150409  452 MAXPOWER CYCLING TEAM
64548.36Donald Rice   Rensselaer, NY2:17:21 215593  451 BATTENKILL UNITED/CCB
65554.05Andrew Valvano   Mount Marion, NY2:17:24 312316  464 
66559.74Edward TenEyck   Syracuse, NY2:21:57 286835  463 BIKE LOFT EAST/MAXPOWER CYCLING
67565.43Ricardo Hernandez   Stratford, CT2:23:26 198656  431 CAFETEROS CYCLING CLUB
68571.12Jacob Rubin   Monticello, NY2:23:48 309170  455 UNIVERSITY OF DELAWARE
69576.81Joseph Robitaille   Brooklyn, NY2:30:25 348422  454 CRCA- EASTERN MOUNTAIN SPORTS
70582.50Marc Kingsley   Cooperstown, NY2:33:39 345510  434 INN AT COOPERSTOWN/PACELINE SPORTS

Men - Cat 3/4

 Place Points NameCity, StateTime USAC #BibTeam
1178.31David Anthony   New York, NY2:54:39 280592  303 CRCA/BH GARNEAU
2181.97Moritz Steiner   Montclair, NJ2:54:44 321676  360 
3185.63Bryan McGill   West Haven, CT2:54:44 218707  329 CLR - CLRRACING.COM
4189.29Alvin Poblacion   New York, NY2:54:45 261153  339 CRCA/BH GARNEAU
5192.95Austin McLenithan   Cambridge, NY2:54:46 252794  330 FARM TEAM ELITE
6196.61James Mahlmann   Brooklyn, NY2:54:46 290950  326 CRCA/FINKRAFT CYCLING TEAM
7200.27Stefano Zanotti   Hartford, CT2:54:46 299661  359 CREATEX COLORS-BENIDORM BIKES-EASTERN BLOC
8203.93Eran Preble   Voorhees, NJ2:54:47 341040  340 UNIVERSITY OF DELAWARE
9207.59Brian ODonnell   Houston, TX2:54:47 331128  335 SHAMA CYCLES
10211.25Nicholas Waller   Johnstown, NY2:54:48 321620  355 TEAM PLACID PLANET
11214.91Hunter Resek   East Dover, VT2:54:48 315400  343 CCB/ DOTGO/UNIVERSITY OF NEW HAMPSHIRE
12218.57Herb Jimenez   Montclair, NJ2:54:48 65794  320 JIMENEZ VELO SPORT
13222.23Ethan Suttner   Ithaca, NY2:54:49 276747  352 CORNELL CYCLING UNTIL MY NEW TEAM GETS ME THE KIT!
14225.89Christopher King   South Salem, NY2:54:49 310339  323 TARMAC CYCLING/IRON BRIDGE CONSULTING
15229.55John Anthony   Jersey City, NJ2:54:49 266198  302 CRCA/EASTERN MOUNTAIN SPORTS
16233.21Soren Jensen   New York, NY2:54:49 356782  319 CRCA / RAPHA RACING
17236.87Ira Blumberg   New York, NY2:54:49 264625  306 CRCA/SETANTA
18240.53Michael Howard   Niagara Falls, NY2:54:49 283281  318 HANDLEBARS CYCLE CO.
19244.19Eric Sutherland   New York, NY2:54:50 162312  351 CRCA/HOULIHAN-LOKEY SANCHEZ
20247.85Erik Markewich   Beacon, NY2:54:50 230301  362 Farm Team Elite Men's Cycling Team
21251.51James Jung   New York , NY2:54:53 18362  322 
22255.17Aaron Hall   Boston, MA2:54:53 274578  317 
23258.83Alexander Barouh   Brooklyn, NY2:54:53 286939  304 CRCA/ BH GARNEAU
24262.49Paul S Connor   Dedham, ME2:54:55 249722  312 COLAVITA RACING INC.
25266.15Christian Verry   Saint Louis, MO2:54:55 276629  353 BURIS LOGISTICS/FIT WERX
26269.81Bradford Stratton   Brooklyn, NY2:54:55 70309  350 CAPITAL BICYCLE RACING CLUB
27273.47Alexei Zakharov   New York, NY2:54:56 332646  358 CRCA/SIGGI'S/NYVELOCITY
28277.13antonio munoz   Corona, NY2:54:57 305481  333 CRCA/FOUNDATION
29280.79Damian Bolduc   South Burlington, VT2:54:58 201223  307 ONION RIVER RACING
30284.45Graham Macbeth   Brooklyn, NY2:54:59 310509  325 CRCA/SETANTA
31288.11Nathan Sentz   Cooperstown, NY2:55:00 215130  346 PACELINE SPORTS
32291.77Ben Noble   Astoria, NY2:55:04 290874  334 CRCA/HOULIHAN-LOKEY SANCHEZ
33295.43Shawn Yackle   Brooklyn, NY2:55:05 237175  357 KING KOG
34299.09Jimmy Andrello   New York, NY2:55:06 230311  301 CRCA/FOUNDATION
35302.75Curtis White   Delanson, NY2:55:10 234696  356 CL NOONAN/BAY HILL CAPITAL/CORNER CYCLE
36306.41Jesse Walker   Brooklyn, NY2:55:10 353108  354 CRCA/SETANTA
37310.07Mark Petimezas   New York City, NY2:55:30 341740  338 CRCA/ FOUNDATION
38313.73Alberto Citarella   Charlotte, VT3:00:08 315986  311 BURRIS LOGISTICS / FIT WERX
39317.39Daniel Crespo   Golden, CO3:02:59 297822  313 CRCA/HOULIHAN LOKEY-SANCHEZ
40321.05Robert Bonelli   Milford, PA3:03:00 296390  308 TARMAC CYCLING/IRON BRIDGE CONSULTING
41324.71Bryan Carbone   West Milford, NJ3:03:02 336654  310 KNAPP'S CYCLERY RACING
42328.37Daniel Moon   Pittsfield, MA3:03:14 304957  332 HOUSATONIC WHEEL CLUB
43332.03Matthew Rettig   Cornwall, NY3:03:33 247425  344 PAWLING CYCLE & SPORT
44335.69AVIV MAIZLIN (1 - Cat4)   Brooklyn, NY3:05:23 305128  327 HUDSON FURNITURE RACING TEAM
45339.35Maksym Shepitko   Brooklyn, NY3:05:31 330706  347 HUDSON FURNITURE RACING TEAM
46343.01Cole Lalomia (2 - Cat4)   Portland, OR3:13:44 309610  324 JIMENEZ VELO SPORT
47346.67Robert Mecea   Brooklyn, NY3:19:46 54448  331 BROOKLYN VELO FORCE/GORILLA COFFEE

Men - Cat 1/2/3

 Place Points NameCity, StateTime USAC #BibTeam
1133.67Alister Ratcliff   Durango, CO3:34:15 193797  38 BIKEREG.COM / CANNONDALE
2138.32Eric Tremble   Jericho, VT3:34:17 212585  45 1K2GO
3142.97Peter Hurst   Norwalk, CT3:34:19 148404  23 BIKEREG.COM / CANNONDALE
4147.62Max Korus   Woodside, CA3:34:20 290610  26 BIKEREG.COM / CANNONDALE
5152.27Brian Breach   Brooklyn, NY3:34:20 274223  GS MENGONI USA
6156.92Sean McCarthy   Easthampton, MA3:34:20 278956  33 JAM FUND
7161.57Daniel Chabanov   Brooklyn, NY3:34:20 264739  13 GS MENGONI USA
8166.22John Harris (1 - Cat2)   Ledyard, CT3:34:21 283275  21 MYSTIC VELO JUNIORS
9170.87James Stevens (2 - Cat2)   Brooklyn, NY3:34:21 277525  42 CRCA/BH GARNEAU
10175.52John Herrick (3 - Cat2)   Contoocook, NH3:34:21 296573  861 Sunapee Racing Team
11180.17Michael Boardman   Brooklyn, NY3:34:22 241308  CRCA/BH GARNEAU
12184.82Jacob Bobrow (4 - Cat2)   Burlington, VT3:34:25 289933  CCB RACING
13189.47Daniel Barney   Fairport, NY3:34:26 230661  MT. BORAH CUSTOM APPAREL / MINERVA DESIGN
14194.12James Schurman   Deerfield Beach, FL3:34:29 284479  52 Four 2 One Sports/Chemstar
15198.77Austin Roach   Bloomfield, IN3:34:32 255885  39 METLIFE CYCLING TEAM
16203.42Jake Hollenbach   Shelburne, VTrel 3B1 189818  862 Boston Bicycle School
17208.07Dan Staffo   Farmington, NY3:34:41 149684  41 HANDLEBARS CYCLING COMPANY
18212.72Jeremy Durrin   Easthampton, MA3:34:50 250645  18 J.A.M. FUND / NCC
19217.37John Hunter   Endicott, NY3:36:28 224432  22 MT. BORAH CUSTOM APPAREL / MINERVA DESIGN
20222.02David Costa   Roselle Park, NJ3:36:32 218866  51 Farm Team Elite Men's Cycling Team
21226.67Matthew Mainer   Hinesburg, VT3:37:24 229526  29 1K2GO
22231.32ZOLTAN TISZA   New York, NY3:41:27 208214  44 CHAMPION SYSTEM RACING
23235.97Amos Brumble IV   Westerly, RI3:42:57 5230  863 CCB
24240.62Abraham Soler   New York, NY3:42:58 251037  50 CRCA/Foundation
25245.27Sergio Atocha (5 - Cat2)   East Elmhurst, NY3:42:58 251001  CHAMPION SYSTEM RACING
26249.92Charles McCarthy   Burlington, VT3:43:29 99405  32 1K2GO SPORTS
27254.57Jeffrey Ingraham (6 - Cat2)   Brooklyn, NY3:46:56 214115  24 CRCA/JONATHAN ADLER RACING
28259.22Dylan Lowe   New York, NY3:55:08 340670  28 CRCA/ BH GARNEAU
29YAHOR BUBEN   3:55:10  10 CCB RACING TEAM
30268.52Benjamin Salibra (7 - Cat2)   Fayetteville, NYP&P 233370  53 CRCA/Junior Development
31273.17Matthew Buckley   Burlington, VTP&P 242892  11 BOSTON BICYCLE SCHOOL
32277.82William Blank   Denville, NJP&P 256201  JIMENEZ VELO SPORT
33282.47John McGill   Montpelier, VTP&P 101738  55 Onion River Racing
34287.12Jim Komarmi (8 - Cat2)   Richmond, VTP&P 231757  25 ONION RIVER RACING
35291.77Marc Bertucco   New York, NYP&P 44238  54 Kissena Cycling Club
36296.42Michael Busa   Northampton, MAP&P 94892  58 J.A.M. Fund / NCC
37301.07Stephen Weller   Leverett, MAP&P 178236  47 BIKEREG.COM / CANNONDALE

Men - Master - Masters - 40-99

 Place Points NameCity, StateTime USAC #BibTeam
1169.53Max Lippolis (1 - Cat2)   Pound Ridge, NY2:53:54 126915  116 TEAM DANBURY AUDI/PEDAL & PUMP
2176.63William Yabroudy   Coventry, RI2:53:54 47974  140 NBX/NARRAGANSETT BEER
3183.73Edward Angeli   Southington, CT2:53:57 91227  101 TARGETRAINING | TRI&CYCLE
4190.83Carl Reglar   Mount Vernon, NY2:53:57 281196  127 VERGE SPORT
5197.93Troy Kimball (2 - Cat2)   Austin, TX2:53:57 118576  115 WESTWOOD VELO
6205.03Jeremy Brazeal   Manchester, CT2:56:15 54411  104 CVC SUBARU OF NEW ENGLAND
7212.13Monte Frank   Sandy Hook, CT2:57:01 82034  110 CYCLE FITNESS
8219.23David Taylor   New York, NY2:57:03 172065  136 CRCA/FUORICLASSE RACING-DISCOVER CHIROPRACTIC
9226.33Kurt Gustafsson   Brooklyn, NY2:57:03 14451  113 CRCA/AXIS
10233.43Gregg Galletta   Dobbs Ferry, NY2:57:04 97363  111 CRCA/BH GARNEAU
11240.53Arthur Podgorski   Feeding Hills, MA2:57:04 56333  125 CYCLONAUTS RACERS INC.
12247.63Todd Roberts   Easthampton, MA2:57:05 30121  128 BIKEREG.COM CYCLING CLUB
13254.73Mark Paggioli   Manchester, CT2:57:06 54549  124 CVC SUBARU OF NEW ENGLAND
14261.83Paul Wojciak   Poughkeepsie, NY2:57:07 230224  139 PAWLING CYCLE AND SPORT
15268.93Todd Cassan   Boulder, CO2:57:15 6406  106 WESTWOOD VELO
16276.03Mark Sumner   Clifton Park, NY2:57:18 114907  135 CCC/KELTIC CONST/ZANES CYCLES
17283.13David Yacobelli   Endicott, NY2:57:19 80453  141 CORNING/NOTUBES RACE TEAM
18290.23Clifford Summers   Queensbury, NY2:57:20 34634  134 CCC/KELTIC CONST/ZANES CYCLES
19297.33Joseph Regan   Branford, CT2:57:43 97302  126 BERLIN BICYCLE/BEST CLEANERS
20304.43Erik Gutbier   Arlington, VT2:57:51 83357  114 CCC KELTIC CONST/ZANES CYCLES
21311.53Gerard O' Shea (3 - Cat2)   Clinton, CT2:57:57 234576  122 CCC/KELTIC CONST/ZANES CYCLES
22318.63Mike Andrews   Danbury, CT3:02:00 200396  143 Cycle Fitness Cycling Club
23325.73Andreas Runggatscher   Monroe, NY3:02:45 189842  130 CRCA/FINKRAFT CYCLING TEAM
24332.83Marc Cesare   Brooklyn, NY3:02:48 59874  107 DENO'S WONDER WHEEL
25339.93Gary Aspnes (4 - Cat2)   Rockville, RI3:07:09 208131  102 CCB RACING TEAM
26347.03Thierry Blanchet   Castleton, NY3:07:19 190039  103 N A V - NORTH AMERICAN VELO
27354.13Peter Ognibene (1 - Cat3)   Old Tappan, NJ3:08:35 228283  123 GS PARK RIDGE/CYCLESPORT
28361.23James Davall (2 - Cat3)   Marcy, NY3:10:30 41877  109 SCHUSS RACING
29368.33Andrew Williams   Binghamton, NY3:11:12 286915  137 RUUD RACING / TVC
30375.43Chris Mooney   Livingston, NJ3:11:12 246574  120 LIBERTY CYCLE
31382.53Michael Mascarenhas   Saratoga Springs, NY3:26:11 189066  118 NORTH AMERICAN VELO
32389.63R Todd Crisafulli   San Rafael, CA3:26:16 8150  108 CLASSBOOK.COM / NORTH AMERICAN VELO
33396.73Steven Williams (3 - Cat3)   Northville, NY3:26:30 52442  138 ADIRONDACK VELO CLUB

Men - Master - Masters - 50-99

 Place Points NameCity, StateTime USAC #BibTeam
1218.51John Funk (1 - Cat2)   South Kent, CT2:57:02 12562  188 CYCLE FITNESS
2235.14Kevin Fitzmaurice   Middlebury, CT2:57:04 11761  189 TARGETRAINING | TRI&CYCLE
3251.77Richard Kazimir   Flemington, NJ2:57:04 296036  187 CENTURY ROAD CLUB OF AMERICA
4268.40kevin mosher (1 - Cat3)   Voorheesville, NY2:57:07 276954  182 CCC/KELTIC CONSTRUCTION/ZANES CYCLES
5285.03Richard Sorenson   Rutland, VT2:57:09 53455  180 ONION RIVER SPORTS
6301.66William Thompson   West Hartford, CT2:57:20 35402  179 CCC/KELTIC CONST/ZANES CYCLES
7318.29Alan Blanchard (2 - Cat3)   New City, NY2:57:22 255105  196 CRCA BLUE RIBBON / TRANSLATIONS.COM
8334.92Alvaro Betancur   White Plains, NY3:03:33 74124  198 CAFETEROS CYCLING CLUB
9351.55Philip Beliveau   St George, VT3:07:11 68336  199 BURRIS LOGISTICS/FIT WERX
10368.18Thomas Luzio   Mamaroneck, NY3:11:11 187590  184 DENO'S WONDER WHEEL
11384.81Scott Klion   New York, NY3:11:15 152618  185 VALLEY BIKE & SKI WERKS
12401.44Dan Fitch   Cazenovia, NY3:11:23 246274  190 TEAM OMMEGANG - SYRACUSE BICYCLE
13418.07Mark Dutka (3 - Cat3)   Uncasville, CT3:11:46 189103  193 MYSTIC VELO
14434.70Andrew Craighead   Greenwich, CT3:14:10 8049  194 CRCA
15451.33Robert Kehl   Philadelphia, PA3:18:57 45528  186 GUY'S RACING CLUB
16467.96Esteban Fernandez Tenas   Greenwich, CT3:18:58 103630  191 DENO'S WONDER WHEEL
17484.59David Carr   New York, NY3:19:46 256699  195 CRCA/SETANTA
18501.22W Mark Graber   Saratoga Springs, NY3:27:01 172905  176 North American Velo
19517.85Stephen McAlpine   Saratoga Springs3:42:09 154094  183 CBRC

Men - Master - Masters - 55-99

 Place Points NameCity, StateTime USAC #BibTeam
1360.04Charles Litty (1 - Cat3)   Southbury, CT2:02:52 148424  212 BETHEL CYCLE SPORT CLUB
2372.06Stephen Geist (1 - Cat4)   Brooklyn, NY2:03:03 236880  207 KISSENA CYCLING CLUB
3384.08Jose Hernandez   Linden, NJ2:06:56 141575  210 COLAVITA RACING
4396.10Bruce Townend   Windsor, MA2:11:15 75172  221 VALLEY BIKE AND SKI WERKS RACING TEAM
5408.12Jeffrey Vogel   Forest Hills, NY2:11:15 55184  222 CRCA/SETANTA
6420.14Kelly Parsons   Lyme, CT2:11:20 147170  215 MYSTIC VELO CLUB
7432.16Ken Coleman   New York, NY2:11:22 199626  203 BCA/TOSK
8444.18Cleofus Price   Bronx, NY2:11:22 227143  216 GS GOTHAM
9456.20Paul Lebonitte   New York, NY2:11:23 174577  211 
10468.22Matthew Moore (2 - Cat3)   West Rupert, VT2:11:24 24938  214 CCC/KELTIC CONSTRUCTION/ZANE'S CYCLES
11480.24Thomas Allessio   Dalton, MA2:11:26 318466  201 BCA/TOSK
12492.26Robert Dillon (2 - Cat4)   Warren, VT2:11:32 151429  205 GMBC/SYNERGY FITNESS
13504.28Jose Torres   Saugus, MA2:13:32 327724  220 INDEPENDENT
14516.30Dan Reilly   Saranac Lake, NY2:13:32 293382  217 TEAM PLACID PLANET
15528.32Van Fronhofer (3 - Cat4)   Salem, NY2:13:44 236542  206 BATTENKILL-UNITED
16540.34Rich Burnley (4 - Cat4)   Gansevoort, NY2:18:48 249140  202 BATTENKILL UNITED
17552.36Kenneth McGuinness   Albany, NY2:38:52 328904  213 CAPITAL BICYCLING RACING CLUB
18564.38John Cummings   Schenectady, NY2:50:25 45225  204 SCHENECTADY CYCLING CLUB

Men - Junior - 15-18

 Place Points NameCity, StateTime USAC #BibTeam
1EDWARD BANDEL   2:06:35  701 
2383.37Keane Brennan   Cambridge, NY2:11:13 260842  703 FARM TEAM CYCLING
3410.16Tomas Jurgensen   Arlington, MA2:11:14 295390  707 NEBC P/B CYCLE LOFT
4436.95Aidan Kesner   Lexington, MA2:17:19 353160  708 NEBC P/B CYCLE LOFT
5463.74Paul Lamarche   New Paltz, NY2:18:08 320618  709 BICYCLE DEPOT
6490.53Jonah MeadVanCort   Ithaca2:18:23 358808  710 FINGERLAKES CYCLING CLUB
7ZANE BELDEN   2:33:03  702 MAVERICK RACING
DQBRETT SCHLESIER   Johnstown, NY1M6 382081  712 ADIRONDACK VELO CLUB

Women - Cat 4

 Place Points NameCity, StateTime USAC #BibTeam
1MENDY TAYLOR   2:08:21  63 BICYCLE DEPOT
2285.61Nicole LaPlante   Peru, NY2:12:28 153353  71 TEAM PLACID PLANET
3298.77Susan Myers   New York, NY2:12:47 315184  60 Century Road Club Association
4311.93MacKenzie Landers   New York, NY2:13:14 335718  72 CRCA/SIGGI'S/NYVELOCITY
5325.09Megan Cea   West Harrison, NY2:13:29 340524  76 TARMAC CYCLING/IRON BRIDGE CONSULTING
6338.25Katherine Amos   New York, NY2:14:55 308375  79 CRCA/HOULIHAN-LOKEY SANCHEZ
7351.41Victoria Brumfield   New York, NY2:14:56 309270  78 CRCA / RADICAL MEDIA
8364.57kathryn chaffin   Brookly, NY2:16:45 357244  75 JIMENEZ VELO SPORT
9377.73Meredith Uhl   Brookline, MA2:18:22 350972  62 CRCA/SIGGI'S/NYVELOCITY
10390.89Emily Spence   Brooklyn, NY2:18:39 357580  64 
11404.05Donna Moody   Lakeplacid, NY2:19:48 282490  67 TEAM PLACID PLANET
12417.21Gina Rocco   Newyork, NY2:20:48 306588  65 CRCA/SIGGI'S/NYVELOCITY
13430.37CarolLynn Mills   Massapequa, NY2:23:32 320308  68 EAST END/KREB CYCLE
14443.53Victoria Gochenour   Brooklyn, NY2:28:19 289361  73 CRCA/FUORICLASSE RACING-DISCOVER CHIROPRACTIC
15456.69CHARITY GIROUX   Queensbury, NY2:28:21 365297  74 
16469.85Lisa Ludwig   Northborough, MA2:37:55 282220  69 NEBC P/B CYCLE LOFT

Women - Cat 1/2/3

 Place Points NameCity, StateTime USAC #BibTeam
1205.00Fabienne Gerard   New York, NY2:04:44 281037  93 CRCA/FUORICLASSE RACING-DISCOVER CHIROPRACTIC
2220.35Kathleen Billington   Norwalk, CT2:04:44 172658  98 DANBURY AUDI
3235.70Anna McLoon   Medford, MA2:04:44 258368  88 MISSING LINK COACHING/SPECIALIZED
4251.05Christine Schryver   Rochester, NY2:04:45 31818  85 FULL MOON VISTA
5266.40Silke Wunderwald   Hopkinton, RI2:05:01 236023  83 TEAM KENDA P/B GEARGRINDER
6281.75Jenny Ives   Saratoga Springs, NY2:08:10 245769  91 FARM TEAM ELITE WOMEN
7297.10Raquel Miller   New York, NY2:08:11 291594  86 CRCA/HOULIHAN-LOKEY SANCHEZ
8312.45Bryna Blanchard   Troy, NY2:08:14 209883  97 FARM TEAM ELITE WOMEN
9327.80Sarah Krzysiak   Utica, NY2:09:44 233739  90 FARM TEAM ELITE CYCLING
10343.15Erica Adelberg   New York, NY2:11:42 242487  99 CRCA/RADICAL MEDIA
11358.50Ann Marie Miller   New York, NY2:12:14 127444  87 CRCA/FUORICLASSE RACING-DISCOVER CHIROPRACTIC
12373.85Kerrin Strevell   Valatie, NY2:12:17 310389  84 CAPITAL BICYCLE RACING CLUB
13389.20Mary Johanson   Belmont, MA2:15:00 313422  92 NEBC P/B CYCLE LOFT
14404.55Gabrielle Fisher   Bronx, NY2:15:36 264788  94 CRCA/HOULIHAN-LOKEY SANCHEZ
15419.90Emily Elbers (1 - Cat3)   Syracuse, NY2:19:28 314836  95 FARM TEAM ELITE WOMEN
16435.25Lyn McCabe   Stamford, CT2:28:20 295891  89 TARGETRAINING
17450.60Colleen Conway   New York, NY2:34:52 258039  96 CRCA/FUORICLASSE RACING-DISCOVER CHIROPRACTIC

Report missing or incorrect license numbers

Volkswagen
Bonk BreakerSierra NevadaShimanoSpyCUOREUSACDF
UCI USA Cycling is the official governing body for all disciplines of competitive cycling in the United States. The 501c3, membership-based organization aims both to achieve sustained success in international cycling competition and to grow competitive cycling in America while delivering an exceptional customer experience.
View Children's Online Privacy Protection Policy
US Olympic Committee